Mini Explorer — FGD5276 — position and weather

sailwx.info

Track history (hours):
 
Tides and Currents Weather Stations Pressure Air Temp Water Temp Dewpoint Dewpoint Depression Visibility Wind Speed Wind Dir Waves Ship Positions

Mini Explorer

Last reported at 2018-May-26 10:25 UTC. Time now 2018-May-26 15:24 UTC.
Position N 48°23' W 004°29'.

Length 6 m.

Type: Sailing vessel. MMSI: 227568370.

Date/timePositionNaut miles runAvg speedWind from/ knotsBaromVisibWave heightAir tempDewpointWater temp
2018-May-26 10:25N 48°23' W 004°29'1 1.6
2018-May-26 10:00N 48°22' W 004°29'1 2.7
2018-May-26 09:30N 48°22' W 004°27'1 1.2
2018-May-26 09:00N 48°22' W 004°28'  
2018-May-23 19:28N 48°23' W 004°29'0 1.0
2018-May-23 19:00N 48°23' W 004°29'2 3.1
2018-May-23 18:30N 48°23' W 004°26'1 2.9
2018-May-23 18:00N 48°21' W 004°27'2 3.5
2018-May-23 17:30N 48°23' W 004°26'0 0.4
2018-May-23 17:00N 48°23' W 004°26'0 0.6
2018-May-23 16:30N 48°23' W 004°26'2 3.9
2018-May-23 15:58N 48°23' W 004°29'0 0.0
2018-May-21 13:29N 48°23' W 004°29'0 0.0
2018-May-19 17:06N 48°23' W 004°29'0 0.1
2018-May-19 17:00N 48°23' W 004°29'2 4.0
2018-May-19 16:30N 48°21' W 004°29'1 1.9
2018-May-19 16:00N 48°21' W 004°28'1 2.5
2018-May-19 15:30N 48°22' W 004°27'1 1.6
2018-May-19 15:00N 48°23' W 004°26'3 5.2
2018-May-19 14:30N 48°21' W 004°28'2 3.8
2018-May-19 14:00N 48°19' W 004°28'0 0.7
2018-May-19 13:30N 48°18' W 004°27'1 2.5
2018-May-19 13:00N 48°19' W 004°29'2 4.1
2018-May-19 12:30N 48°21' W 004°29'2 3.5
2018-May-19 12:00N 48°23' W 004°29'0 0.4
2018-May-19 11:28N 48°23' W 004°29'  
2018-May-16 18:32N 48°23' W 004°29'0 0.0
2018-May-16 18:29N 48°23' W 004°29'0 0.7
2018-May-16 18:00N 48°22' W 004°29'2 4.2
2018-May-16 17:30N 48°22' W 004°26'1 2.2
2018-May-16 17:00N 48°23' W 004°26'2 3.4
2018-May-16 16:30N 48°23' W 004°28'1 1.2
2018-May-16 16:00N 48°23' W 004°29'  
Track history (hours):
 
Tides and Currents Weather Stations Pressure Air Temp Water Temp Dewpoint Dewpoint Depression Visibility Wind Speed Wind Dir Waves Ship Positions

Mini Explorer

Last reported at 2018-May-26 10:25 UTC. Time now 2018-May-26 15:24 UTC.
Position N 48°23' W 004°29'.

Length 6 m.

Type: Sailing vessel. MMSI: 227568370.

Date/timePositionNaut miles runAvg speedWind from/ knotsBaromVisibWave heightAir tempDewpointWater temp
2018-May-26 10:25N 48°23' W 004°29'1 1.6
2018-May-26 10:00N 48°22' W 004°29'1 2.7
2018-May-26 09:30N 48°22' W 004°27'1 1.2
2018-May-26 09:00N 48°22' W 004°28'  
2018-May-23 19:28N 48°23' W 004°29'0 1.0
2018-May-23 19:00N 48°23' W 004°29'2 3.1
2018-May-23 18:30N 48°23' W 004°26'1 2.9
2018-May-23 18:00N 48°21' W 004°27'2 3.5
2018-May-23 17:30N 48°23' W 004°26'0 0.4
2018-May-23 17:00N 48°23' W 004°26'0 0.6
2018-May-23 16:30N 48°23' W 004°26'2 3.9
2018-May-23 15:58N 48°23' W 004°29'0 0.0
2018-May-21 13:29N 48°23' W 004°29'0 0.0
2018-May-19 17:06N 48°23' W 004°29'0 0.1
2018-May-19 17:00N 48°23' W 004°29'2 4.0
2018-May-19 16:30N 48°21' W 004°29'1 1.9
2018-May-19 16:00N 48°21' W 004°28'1 2.5
2018-May-19 15:30N 48°22' W 004°27'1 1.6
2018-May-19 15:00N 48°23' W 004°26'3 5.2
2018-May-19 14:30N 48°21' W 004°28'2 3.8
2018-May-19 14:00N 48°19' W 004°28'0 0.7
2018-May-19 13:30N 48°18' W 004°27'1 2.5
2018-May-19 13:00N 48°19' W 004°29'2 4.1
2018-May-19 12:30N 48°21' W 004°29'2 3.5
2018-May-19 12:00N 48°23' W 004°29'0 0.4
2018-May-19 11:28N 48°23' W 004°29'  
2018-May-16 18:32N 48°23' W 004°29'0 0.0
2018-May-16 18:29N 48°23' W 004°29'0 0.7
2018-May-16 18:00N 48°22' W 004°29'2 4.2
2018-May-16 17:30N 48°22' W 004°26'1 2.2
2018-May-16 17:00N 48°23' W 004°26'2 3.4
2018-May-16 16:30N 48°23' W 004°28'1 1.2
2018-May-16 16:00N 48°23' W 004°29'  

Dump ship's entire track history